Time;durP1;ratioP1;P1;durP2;ratioP2;P2;SDS_P1;SDS_P2;PMS_P1;PMS_P2;Temp;Humidity;BMP_temperature;BMP_pressure;BME280_temperature;BME280_humidity;BME280_pressure;Samples;Min_cycle;Max_cycle;Signal;HPM_P1;HPM_P2
2022/12/28 00:00:49;;;;;;;4.53;1.50;;;7.10;92.10;;;;;;5133944;28;20054;-74
2022/12/28 00:03:15;;;;;;;4.95;1.88;;;7.20;92.10;;;;;;5133016;28;20028;-74
2022/12/28 00:05:40;;;;;;;2.85;1.58;;;7.10;92.20;;;;;;5132954;28;20032;-74
2022/12/28 00:08:06;;;;;;;1.55;1.10;;;7.20;92.20;;;;;;5115884;28;20032;-74
2022/12/28 00:10:32;;;;;;;5.47;2.00;;;7.20;92.10;;;;;;5133869;28;20050;-73
2022/12/28 00:12:57;;;;;;;2.95;1.25;;;7.20;92.30;;;;;;5098977;28;20514;-74
2022/12/28 00:15:23;;;;;;;2.40;1.42;;;7.20;92.20;;;;;;5135634;28;20036;-74
2022/12/28 00:17:48;;;;;;;2.28;1.13;;;7.20;92.30;;;;;;5137147;28;20028;-74
2022/12/28 00:20:14;;;;;;;5.85;1.83;;;7.20;92.40;;;;;;5137818;28;20055;-74
2022/12/28 00:22:40;;;;;;;3.80;1.65;;;7.30;92.40;;;;;;5119980;28;20023;-73
2022/12/28 00:25:06;;;;;;;5.38;1.35;;;7.20;92.40;;;;;;5119852;28;20032;-74
2022/12/28 00:27:32;;;;;;;3.63;1.30;;;7.20;92.60;;;;;;5137854;28;20042;-74
2022/12/28 00:29:57;;;;;;;3.63;1.35;;;7.20;92.60;;;;;;5136882;28;20023;-73
2022/12/28 00:32:23;;;;;;;4.70;2.15;;;7.20;92.60;;;;;;5136791;28;20022;-74
2022/12/28 00:34:48;;;;;;;3.92;1.80;;;7.30;92.60;;;;;;5136414;28;20398;-74
2022/12/28 00:37:14;;;;;;;11.13;1.70;;;7.20;92.60;;;;;;5136808;28;20037;-74
2022/12/28 00:39:41;;;;;;;5.60;1.73;;;7.20;92.70;;;;;;5137595;28;20530;-74
2022/12/28 00:42:07;;;;;;;2.70;1.25;;;7.30;92.70;;;;;;5136670;28;20111;-73
2022/12/28 00:44:32;;;;;;;3.33;2.15;;;7.30;92.70;;;;;;5136643;28;20034;-74
2022/12/28 00:46:58;;;;;;;3.13;1.55;;;7.20;92.60;;;;;;5137621;28;20034;-74
2022/12/28 00:49:23;;;;;;;3.53;1.55;;;7.20;92.60;;;;;;5136543;28;20073;-74
2022/12/28 00:51:49;;;;;;;6.18;2.38;;;7.20;92.50;;;;;;5136459;28;20016;-73
2022/12/28 00:54:15;;;;;;;3.35;1.90;;;7.30;92.50;;;;;;5136344;28;20494;-74
2022/12/28 00:56:41;;;;;;;4.40;1.95;;;7.30;92.50;;;;;;5137281;28;20027;-74
2022/12/28 00:59:08;;;;;;;2.40;0.95;;;7.30;92.50;;;;;;5136342;28;20424;-74
2022/12/28 01:01:34;;;;;;;4.63;1.60;;;7.20;92.50;;;;;;5137239;28;20023;-74
2022/12/28 01:03:59;;;;;;;4.05;1.80;;;7.30;92.60;;;;;;5136304;28;20028;-74
2022/12/28 01:06:28;;;;;;;4.78;1.52;;;7.30;92.70;;;;;;5119050;28;20055;-74
2022/12/28 01:08:53;;;;;;;4.63;2.00;;;7.30;92.70;;;;;;5135949;28;20027;-74
2022/12/28 01:11:22;;;;;;;2.78;1.33;;;7.30;92.50;;;;;;5118931;28;20036;-74
2022/12/28 01:13:49;;;;;;;2.15;1.58;;;7.40;92.60;;;;;;5137043;28;20104;-74
2022/12/28 01:16:27;;;;;;;3.65;1.80;;;7.40;92.50;;;;;;5136934;28;20012;-74
2022/12/28 01:18:56;;;;;;;4.78;1.95;;;7.40;92.50;;;;;;5136447;28;20058;-74
2022/12/28 01:21:24;;;;;;;3.97;2.10;;;7.40;92.50;;;;;;5134603;28;20031;-74
2022/12/28 01:23:53;;;;;;;3.20;1.63;;;7.40;92.60;;;;;;5134546;28;20015;-74
2022/12/28 01:26:19;;;;;;;5.20;2.13;;;7.50;92.50;;;;;;5134075;28;20020;-74
2022/12/28 01:28:45;;;;;;;5.22;1.98;;;7.50;92.40;;;;;;5134455;28;20521;-74
2022/12/28 01:31:13;;;;;;;3.08;1.75;;;7.50;92.40;;;;;;5135464;28;20032;-74
2022/12/28 01:33:39;;;;;;;4.10;1.48;;;7.60;92.30;;;;;;5135443;28;20088;-73
2022/12/28 01:36:10;;;;;;;2.92;1.55;;;7.60;92.20;;;;;;5135391;28;20039;-74
2022/12/28 01:38:36;;;;;;;5.03;1.93;;;7.60;92.20;;;;;;5134573;28;20054;-74
2022/12/28 01:41:02;;;;;;;2.90;1.65;;;7.60;92.10;;;;;;5117266;28;20118;-74
2022/12/28 01:43:41;;;;;;;1.80;0.90;;;7.60;92.10;;;;;;5134324;28;20027;-74
2022/12/28 01:46:15;;;;;;;4.13;1.60;;;7.60;92.00;;;;;;5134248;28;20045;-74
2022/12/28 01:49:07;;;;;;;3.33;1.58;;;7.60;92.10;;;;;;5135244;28;20031;-74
2022/12/28 01:51:57;;;;;;;4.00;1.83;;;7.70;92.00;;;;;;5124186;28;20091;-74
2022/12/28 01:54:25;;;;;;;6.13;2.30;;;7.70;91.90;;;;;;5135031;28;20505;-73
2022/12/28 01:56:51;;;;;;;7.03;2.03;;;7.70;92.00;;;;;;5135063;28;20030;-74
2022/12/28 01:59:20;;;;;;;3.72;1.58;;;7.70;92.00;;;;;;5135031;28;20027;-74
2022/12/28 02:01:47;;;;;;;4.97;1.60;;;7.70;92.00;;;;;;5134989;28;20024;-74
2022/12/28 02:04:12;;;;;;;4.05;1.60;;;7.70;91.90;;;;;;5134098;28;20030;-74
2022/12/28 02:06:38;;;;;;;4.13;1.73;;;7.70;91.80;;;;;;5133985;28;20031;-74
2022/12/28 02:09:14;;;;;;;3.35;1.40;;;7.80;91.80;;;;;;5134774;28;20045;-74
2022/12/28 02:11:40;;;;;;;3.90;1.63;;;7.80;91.80;;;;;;5133849;28;20020;-74
2022/12/28 02:14:07;;;;;;;2.38;1.45;;;7.80;91.70;;;;;;5133783;28;20099;-74
2022/12/28 02:16:32;;;;;;;2.30;1.52;;;7.80;91.80;;;;;;5134801;28;20024;-74
2022/12/28 02:18:58;;;;;;;4.25;2.00;;;7.90;91.90;;;;;;5093830;28;1153647;-74
2022/12/28 02:21:49;;;;;;;2.45;1.50;;;7.90;91.90;;;;;;5135616;28;20053;-74
2022/12/28 02:24:27;;;;;;;1.70;1.25;;;7.90;91.70;;;;;;5135793;28;20087;-74
2022/12/28 02:26:56;;;;;;;5.72;1.30;;;7.90;91.70;;;;;;5135573;28;20043;-74
2022/12/28 02:29:43;;;;;;;2.38;1.25;;;7.90;91.70;;;;;;5135578;28;20031;-74
2022/12/28 02:32:24;;;;;;;2.45;1.17;;;8.00;91.50;;;;;;5134717;28;20042;-74
2022/12/28 02:35:14;;;;;;;2.40;1.33;;;8.00;91.60;;;;;;5134422;28;20065;-74
2022/12/28 02:37:46;;;;;;;3.13;1.80;;;8.00;91.70;;;;;;5134710;28;20012;-74
2022/12/28 02:40:23;;;;;;;1.95;1.20;;;8.00;91.70;;;;;;5135370;28;20020;-74
2022/12/28 02:42:51;;;;;;;3.45;1.42;;;8.00;91.70;;;;;;5135407;28;20023;-74
2022/12/28 02:51:48;;;;;;;3.10;1.27;;;8.10;91.80;;;;;;5135315;28;20160;-74
2022/12/28 02:57:43;;;;;;;2.47;1.50;;;8.10;91.90;;;;;;5134999;28;20049;-74
2022/12/28 03:00:17;;;;;;;2.58;1.45;;;8.10;92.10;;;;;;5133977;28;20052;-74
2022/12/28 03:03:03;;;;;;;3.63;1.83;;;8.20;92.30;;;;;;5133865;28;20053;-74
2022/12/28 03:08:53;;;;;;;2.53;1.60;;;8.10;92.80;;;;;;5134779;28;20529;-74
2022/12/28 03:11:26;;;;;;;1.95;1.25;;;8.10;93.10;;;;;;5133728;28;20095;-74
2022/12/28 03:13:55;;;;;;;5.32;1.75;;;8.10;93.50;;;;;;5134659;28;20027;-74
2022/12/28 03:16:30;;;;;;;3.58;1.73;;;8.00;93.70;;;;;;5134628;28;20019;-74
2022/12/28 03:33:03;;;;;;;3.25;2.08;;;7.90;95.60;;;;;;5134592;28;20039;-74
2022/12/28 03:35:48;;;;;;;2.42;1.52;;;7.90;95.70;;;;;;5133302;28;20036;-74
2022/12/28 03:38:25;;;;;;;4.63;2.35;;;7.90;95.70;;;;;;5134498;28;20024;-74
2022/12/28 03:40:56;;;;;;;2.30;1.15;;;7.90;95.70;;;;;;5134265;28;20035;-74
2022/12/28 03:43:41;;;;;;;3.35;1.60;;;8.00;95.80;;;;;;5134254;28;20023;-74
2022/12/28 03:46:25;;;;;;;3.13;1.80;;;8.00;95.90;;;;;;5134205;28;20030;-74
2022/12/28 03:48:51;;;;;;;2.85;1.80;;;8.00;96.00;;;;;;5134189;28;20027;-74
2022/12/28 03:51:21;;;;;;;4.20;2.33;;;8.00;96.20;;;;;;5134093;28;20099;-74
2022/12/28 03:53:47;;;;;;;2.55;1.80;;;8.00;96.40;;;;;;5134011;28;20075;-74
2022/12/28 03:56:18;;;;;;;2.75;1.90;;;8.00;96.50;;;;;;5133013;28;20024;-74
2022/12/28 03:58:45;;;;;;;3.20;1.83;;;8.00;96.60;;;;;;5133098;28;20016;-74
2022/12/28 04:01:10;;;;;;;5.07;2.35;;;8.00;96.70;;;;;;5115967;28;20103;-74
2022/12/28 04:03:36;;;;;;;3.25;1.95;;;8.00;96.70;;;;;;5133021;28;20035;-74
2022/12/28 04:06:02;;;;;;;3.17;1.55;;;8.00;96.70;;;;;;5116026;28;20024;-74
2022/12/28 04:08:28;;;;;;;3.65;2.17;;;8.00;96.70;;;;;;5132927;28;20118;-74
2022/12/28 04:10:54;;;;;;;2.42;1.63;;;8.10;96.70;;;;;;5132959;28;20032;-74
2022/12/28 04:13:20;;;;;;;3.72;1.98;;;8.10;96.60;;;;;;5133992;28;20364;-74
2022/12/28 04:15:59;;;;;;;3.05;1.85;;;8.10;96.60;;;;;;5133787;28;20030;-74
2022/12/28 04:18:25;;;;;;;3.50;2.00;;;8.10;96.50;;;;;;5133668;28;20038;-74
2022/12/28 04:20:52;;;;;;;2.75;1.55;;;8.10;96.50;;;;;;5132942;28;20027;-74
2022/12/28 04:23:18;;;;;;;5.05;2.25;;;8.20;96.40;;;;;;5132804;28;20102;-74
2022/12/28 04:26:01;;;;;;;5.38;2.90;;;8.20;96.40;;;;;;5132859;28;20038;-74
2022/12/28 04:28:27;;;;;;;2.28;1.40;;;8.20;96.30;;;;;;5133901;28;20030;-74
2022/12/28 04:30:54;;;;;;;3.97;1.83;;;8.20;96.30;;;;;;5133710;28;20046;-74
2022/12/28 04:33:19;;;;;;;3.10;1.90;;;8.20;96.50;;;;;;5133713;28;20047;-74
2022/12/28 04:35:45;;;;;;;2.30;1.58;;;8.20;96.50;;;;;;5133621;28;20027;-74
2022/12/28 04:38:11;;;;;;;3.80;1.80;;;8.30;96.60;;;;;;5132680;28;20024;-74
2022/12/28 04:40:36;;;;;;;3.58;2.35;;;8.30;96.80;;;;;;5133614;28;20031;-74
2022/12/28 04:43:02;;;;;;;4.63;1.50;;;8.30;97.20;;;;;;5132823;28;20027;-74
2022/12/28 04:45:28;;;;;;;3.90;2.00;;;8.30;96.80;;;;;;5115638;28;20081;-74
2022/12/28 04:47:57;;;;;;;3.67;2.30;;;8.30;96.90;;;;;;5132686;28;20401;-74
2022/12/28 04:50:23;;;;;;;3.45;1.80;;;8.30;96.90;;;;;;5133665;28;20049;-74
2022/12/28 04:52:49;;;;;;;4.13;2.45;;;8.30;97.00;;;;;;5132458;28;20032;-73
2022/12/28 04:55:15;;;;;;;3.75;2.25;;;8.30;97.20;;;;;;5132455;28;20031;-74
2022/12/28 04:57:43;;;;;;;4.65;2.88;;;8.30;97.40;;;;;;5132437;28;20032;-73
2022/12/28 05:00:09;;;;;;;4.10;2.40;;;8.40;97.40;;;;;;5134081;28;20023;-74
2022/12/28 05:02:35;;;;;;;4.70;1.77;;;8.40;97.40;;;;;;5137220;28;20027;-73
2022/12/28 05:05:00;;;;;;;6.60;2.25;;;8.40;97.40;;;;;;5137154;28;20042;-73
2022/12/28 05:07:27;;;;;;;4.60;2.47;;;8.40;97.40;;;;;;5137256;28;20049;-74
2022/12/28 05:09:52;;;;;;;5.22;1.80;;;8.40;97.40;;;;;;5136997;28;20039;-74
2022/12/28 05:12:18;;;;;;;3.47;2.28;;;8.40;97.50;;;;;;5136154;28;20044;-74
2022/12/28 05:14:44;;;;;;;5.18;2.85;;;8.40;97.40;;;;;;5135895;28;20024;-74
2022/12/28 05:17:09;;;;;;;4.47;2.50;;;8.40;97.50;;;;;;5136916;28;20034;-74
2022/12/28 05:19:35;;;;;;;3.40;2.10;;;8.50;97.50;;;;;;5136691;28;20050;-74
2022/12/28 05:22:01;;;;;;;3.78;2.20;;;8.50;97.50;;;;;;5136822;28;20024;-74
2022/12/28 05:24:26;;;;;;;5.60;2.83;;;8.50;97.50;;;;;;5136777;28;20036;-74
2022/12/28 05:26:52;;;;;;;3.63;2.38;;;8.50;97.50;;;;;;5118755;28;20020;-74
2022/12/28 05:29:17;;;;;;;4.78;2.38;;;8.50;97.60;;;;;;5136706;28;20066;-74
2022/12/28 05:31:43;;;;;;;3.22;2.00;;;8.50;97.70;;;;;;5101822;28;20039;-74
2022/12/28 05:34:09;;;;;;;3.75;2.03;;;8.50;97.90;;;;;;5118543;28;20035;-74
2022/12/28 05:36:36;;;;;;;3.67;1.90;;;8.50;97.90;;;;;;5135616;28;20024;-74
2022/12/28 05:39:03;;;;;;;2.58;2.20;;;8.50;98.00;;;;;;5135615;28;20377;-74
2022/12/28 05:41:29;;;;;;;3.97;2.38;;;8.60;98.10;;;;;;5136514;28;20020;-74
2022/12/28 05:43:57;;;;;;;9.68;2.88;;;8.50;98.20;;;;;;5118398;28;20020;-74
2022/12/28 05:46:28;;;;;;;3.45;1.98;;;8.60;98.20;;;;;;5136383;28;20065;-74
2022/12/28 05:48:54;;;;;;;2.80;1.75;;;8.60;98.20;;;;;;5134312;28;20024;-74
2022/12/28 05:51:22;;;;;;;6.18;2.97;;;8.60;98.20;;;;;;5136254;28;20019;-74
2022/12/28 05:53:48;;;;;;;5.20;2.80;;;8.60;98.30;;;;;;5136206;28;20028;-73
2022/12/28 05:56:17;;;;;;;5.45;2.72;;;8.60;98.50;;;;;;5135321;28;20031;-74
2022/12/28 05:58:44;;;;;;;3.75;2.30;;;8.60;98.60;;;;;;5136104;28;20016;-74
2022/12/28 06:01:13;;;;;;;3.10;1.77;;;8.60;98.70;;;;;;5136064;28;20027;-73
2022/12/28 06:03:39;;;;;;;4.32;1.88;;;8.60;98.70;;;;;;5135038;28;20019;-73
2022/12/28 06:06:07;;;;;;;5.45;2.20;;;8.60;98.80;;;;;;5136004;28;20036;-74
2022/12/28 06:08:33;;;;;;;5.05;2.08;;;8.60;98.80;;;;;;5135888;28;20079;-74
2022/12/28 06:11:03;;;;;;;4.65;1.50;;;8.60;98.90;;;;;;5134622;28;20050;-74
2022/12/28 06:13:30;;;;;;;3.85;1.90;;;8.60;99.00;;;;;;5133944;28;20148;-74
2022/12/28 06:15:56;;;;;;;2.97;1.30;;;8.60;99.00;;;;;;5135756;28;20031;-74
2022/12/28 06:18:22;;;;;;;2.70;1.63;;;8.70;99.00;;;;;;5135567;28;20049;-74
2022/12/28 06:20:48;;;;;;;3.88;1.63;;;8.70;99.00;;;;;;5135740;28;20079;-74
2022/12/28 06:23:13;;;;;;;2.83;2.08;;;8.70;99.00;;;;;;5135647;28;20016;-74
2022/12/28 06:25:39;;;;;;;4.00;1.90;;;8.70;99.10;;;;;;5117601;28;20027;-73
2022/12/28 06:28:05;;;;;;;2.67;1.33;;;8.70;99.00;;;;;;5134547;28;20088;-74
2022/12/28 06:30:30;;;;;;;2.50;1.10;;;8.80;99.10;;;;;;5135341;28;20038;-74
2022/12/28 06:32:56;;;;;;;3.00;1.35;;;8.80;99.10;;;;;;5135452;28;20024;-74
2022/12/28 06:35:22;;;;;;;2.75;1.92;;;8.80;99.00;;;;;;5134405;28;20095;-73
2022/12/28 06:37:48;;;;;;;1.60;1.05;;;8.80;99.00;;;;;;5134442;28;20028;-74
2022/12/28 06:40:14;;;;;;;3.92;1.63;;;8.80;99.00;;;;;;5135502;28;20016;-73
2022/12/28 06:42:40;;;;;;;2.25;1.20;;;8.80;98.90;;;;;;5134185;28;20027;-74
2022/12/28 06:45:06;;;;;;;3.40;1.17;;;8.80;98.90;;;;;;5117507;28;20036;-74
2022/12/28 06:47:34;;;;;;;1.73;1.25;;;8.90;98.90;;;;;;5134164;28;20030;-74
2022/12/28 06:50:00;;;;;;;2.65;1.30;;;8.90;98.90;;;;;;5134082;28;20020;-74
2022/12/28 06:52:26;;;;;;;2.45;1.50;;;8.90;98.90;;;;;;5133989;28;20122;-74
2022/12/28 06:54:51;;;;;;;2.03;1.15;;;8.90;98.80;;;;;;5133964;28;20028;-74
2022/12/28 06:57:17;;;;;;;2.42;1.15;;;9.00;98.80;;;;;;5134962;28;20027;-74
2022/12/28 06:59:43;;;;;;;1.80;0.80;;;8.90;98.70;;;;;;5134027;28;20024;-74
2022/12/28 07:02:08;;;;;;;1.33;0.90;;;8.90;98.70;;;;;;5133824;28;20095;-74
2022/12/28 07:04:34;;;;;;;2.47;1.30;;;8.90;98.70;;;;;;5133904;28;20061;-74
2022/12/28 07:07:00;;;;;;;2.67;1.38;;;9.00;98.70;;;;;;5133818;28;20031;-73
2022/12/28 07:09:25;;;;;;;2.30;1.27;;;9.00;98.70;;;;;;5134684;28;20028;-74
2022/12/28 07:11:51;;;;;;;3.17;1.40;;;9.00;98.70;;;;;;5116755;28;20031;-74
2022/12/28 07:14:17;;;;;;;3.13;1.48;;;9.00;98.70;;;;;;5116650;28;20096;-74
2022/12/28 07:16:43;;;;;;;8.40;1.85;;;9.00;98.70;;;;;;5134629;28;20041;-74
2022/12/28 07:19:09;;;;;;;4.63;2.08;;;9.00;98.70;;;;;;5116368;28;20056;-74
2022/12/28 07:21:38;;;;;;;2.17;1.48;;;9.00;98.60;;;;;;5134268;28;20027;-74
2022/12/28 07:24:05;;;;;;;4.90;1.67;;;9.10;98.50;;;;;;5133087;28;20016;-74
2022/12/28 07:26:34;;;;;;;3.58;1.45;;;9.10;98.50;;;;;;5134062;28;20026;-74
2022/12/28 07:29:01;;;;;;;1.52;0.95;;;9.10;98.50;;;;;;5133409;28;20019;-74
2022/12/28 07:31:29;;;;;;;1.85;1.10;;;9.10;98.40;;;;;;5133232;28;20045;-74
2022/12/28 07:33:56;;;;;;;1.65;1.00;;;9.10;98.50;;;;;;5134266;28;20020;-75
2022/12/28 07:36:24;;;;;;;3.03;1.52;;;9.10;98.50;;;;;;5134301;28;20020;-74
2022/12/28 07:38:50;;;;;;;2.95;1.92;;;9.10;98.50;;;;;;5116478;28;20034;-74
2022/12/28 07:41:18;;;;;;;4.07;2.28;;;9.10;98.50;;;;;;5134174;28;20045;-73
2022/12/28 07:43:44;;;;;;;4.20;1.85;;;9.10;98.50;;;;;;5133176;28;20016;-74
2022/12/28 07:46:16;;;;;;;1.85;1.25;;;9.10;98.60;;;;;;5116173;28;20034;-74
2022/12/28 07:48:48;;;;;;;7.07;1.93;;;9.10;99.00;;;;;;5133107;28;20027;-74
2022/12/28 07:51:31;;;;;;;2.53;1.60;;;9.10;98.70;;;;;;5134084;28;20027;-74
2022/12/28 07:53:58;;;;;;;3.08;1.73;;;9.10;98.70;;;;;;5134042;28;20023;-74
2022/12/28 07:56:25;;;;;;;5.88;2.25;;;9.10;98.60;;;;;;5133053;28;20410;-74
2022/12/28 08:01:38;;;;;;;1.85;1.00;;;9.20;98.60;;;;;;5133903;28;20049;-74
2022/12/28 08:04:08;;;;;;;1.83;1.05;;;9.20;98.60;;;;;;5132221;28;20028;-74
2022/12/28 08:06:37;;;;;;;3.95;2.25;;;9.20;98.70;;;;;;5133075;28;20012;-74
2022/12/28 08:09:04;;;;;;;2.40;1.55;;;9.20;98.70;;;;;;5133784;28;20035;-74
2022/12/28 08:11:32;;;;;;;2.95;2.00;;;9.20;98.90;;;;;;5133002;28;20028;-74
2022/12/28 08:14:00;;;;;;;3.17;2.00;;;9.20;98.50;;;;;;5132775;28;20455;-74
2022/12/28 08:16:27;;;;;;;4.30;1.38;;;9.20;98.40;;;;;;5115778;28;20072;-74
2022/12/28 08:18:53;;;;;;;2.33;1.38;;;9.20;98.20;;;;;;5135222;28;20051;-74
2022/12/28 08:21:25;;;;;;;3.45;2.42;;;9.20;98.30;;;;;;5136667;27;20055;-74
2022/12/28 08:23:51;;;;;;;5.00;2.70;;;9.20;98.30;;;;;;5133886;28;20028;-74
2022/12/28 08:26:38;;;;;;;2.28;1.60;;;9.30;98.40;;;;;;5133748;28;20034;-74
2022/12/28 08:29:11;;;;;;;5.15;2.50;;;9.30;98.50;;;;;;5132816;28;20049;-74
2022/12/28 08:31:39;;;;;;;2.53;1.58;;;9.20;98.60;;;;;;5133653;28;20431;-74
2022/12/28 08:34:06;;;;;;;2.25;1.67;;;9.20;98.70;;;;;;5132612;28;20020;-74
2022/12/28 08:36:32;;;;;;;3.97;1.73;;;9.20;98.70;;;;;;5118749;28;20095;-74
2022/12/28 08:38:59;;;;;;;6.28;2.85;;;9.20;98.70;;;;;;5137843;28;20031;-74
2022/12/28 08:41:27;;;;;;;3.42;1.83;;;9.30;98.80;;;;;;5136602;28;20080;-74
2022/12/28 08:43:53;;;;;;;4.22;2.10;;;9.30;98.90;;;;;;5137634;28;20391;-74
2022/12/28 08:46:22;;;;;;;13.82;6.70;;;9.30;98.90;;;;;;5137502;27;20028;-74
2022/12/28 08:48:49;;;;;;;115.10;45.85;;;9.20;98.90;;;;;;5137506;28;20019;-75
2022/12/28 08:51:17;;;;;;;4.25;2.20;;;9.30;98.90;;;;;;5137570;28;20047;-74
2022/12/28 08:53:42;;;;;;;5.32;2.53;;;9.30;98.80;;;;;;5137219;28;20051;-74
2022/12/28 08:56:09;;;;;;;5.53;2.78;;;9.30;98.80;;;;;;5119318;28;20035;-74
2022/12/28 08:58:36;;;;;;;6.18;3.03;;;9.30;98.60;;;;;;5136337;28;20016;-74
2022/12/28 09:01:18;;;;;;;5.57;3.20;;;9.30;98.70;;;;;;5136212;28;20024;-74
2022/12/28 09:03:45;;;;;;;4.07;2.58;;;9.30;98.60;;;;;;5136143;28;20030;-74
2022/12/28 09:06:23;;;;;;;3.78;1.73;;;9.30;98.60;;;;;;5136414;28;20035;-74
2022/12/28 09:08:53;;;;;;;4.75;2.45;;;9.40;98.60;;;;;;5137035;28;20038;-73
2022/12/28 09:11:19;;;;;;;4.35;2.42;;;9.40;98.60;;;;;;5136048;28;20019;-74
2022/12/28 09:13:46;;;;;;;4.75;2.90;;;9.40;98.60;;;;;;5136977;28;20019;-74
2022/12/28 09:16:14;;;;;;;2.97;2.03;;;9.40;98.50;;;;;;5136861;28;20023;-74
2022/12/28 09:18:41;;;;;;;2.67;1.75;;;9.40;98.60;;;;;;5135898;28;20030;-74
2022/12/28 09:21:12;;;;;;;9.07;2.92;;;9.40;98.60;;;;;;5135643;28;20047;-75
2022/12/28 09:23:38;;;;;;;4.28;3.10;;;9.40;98.70;;;;;;5136054;28;20027;-73
2022/12/28 09:26:12;;;;;;;3.03;1.80;;;9.40;98.70;;;;;;5136775;27;20053;-73
2022/12/28 09:28:43;;;;;;;5.72;2.80;;;9.40;98.60;;;;;;5135690;28;20028;-73
2022/12/28 09:31:08;;;;;;;4.82;3.15;;;9.40;98.70;;;;;;5135621;28;20111;-73
2022/12/28 09:36:49;;;;;;;2.92;1.85;;;9.40;98.80;;;;;;5127310;28;20099;-75
2022/12/28 09:39:17;;;;;;;3.47;2.28;;;9.40;98.90;;;;;;5136658;28;20164;-74
2022/12/28 09:41:58;;;;;;;6.57;2.42;;;9.40;98.90;;;;;;5135513;28;20015;-73
2022/12/28 09:45:01;;;;;;;5.05;2.10;;;9.40;98.80;;;;;;5135504;28;20109;-74
2022/12/28 09:48:01;;;;;;;3.03;1.50;;;9.50;98.80;;;;;;5135999;28;20088;-74
2022/12/28 09:54:28;;;;;;;;;;;;;;;;;;;;;
2022/12/28 09:57:21;;;;;;;7.20;2.25;;;9.40;98.80;;;;;;5053470;28;20061;-73
2022/12/28 10:00:39;;;;;;;2.33;1.63;;;9.40;98.80;;;;;;5053508;28;20021;-73
2022/12/28 10:03:20;;;;;;;2.40;2.03;;;9.50;98.90;;;;;;5019937;28;20025;-73
2022/12/28 10:05:47;;;;;;;3.30;2.03;;;9.40;98.80;;;;;;5134491;28;20046;-73
2022/12/28 10:08:16;;;;;;;4.63;2.70;;;9.50;98.90;;;;;;5134880;28;20055;-73
2022/12/28 10:10:42;;;;;;;2.58;1.85;;;9.50;98.70;;;;;;5134827;28;20016;-73
2022/12/28 10:13:21;;;;;;;4.68;1.60;;;9.50;98.50;;;;;;5135867;28;20019;-73
2022/12/28 10:15:48;;;;;;;2.17;1.45;;;9.50;98.60;;;;;;5134888;28;20046;-73
2022/12/28 10:18:15;;;;;;;4.18;1.98;;;9.50;98.50;;;;;;5134718;28;20024;-74
2022/12/28 10:20:44;;;;;;;2.20;1.48;;;9.60;98.30;;;;;;5135443;28;20039;-74
2022/12/28 10:23:15;;;;;;;4.70;2.45;;;9.60;98.20;;;;;;5135713;28;20038;-75
2022/12/28 10:25:41;;;;;;;2.20;1.83;;;9.60;98.20;;;;;;5134694;28;20020;-75
2022/12/28 10:28:08;;;;;;;3.33;1.50;;;9.60;98.30;;;;;;5134635;28;20028;-75
2022/12/28 10:30:44;;;;;;;1.23;1.00;;;9.60;98.30;;;;;;5135557;28;20024;-74
2022/12/28 10:33:15;;;;;;;3.67;1.98;;;9.60;98.30;;;;;;5134572;28;20019;-74
2022/12/28 10:35:53;;;;;;;3.95;1.70;;;9.60;98.40;;;;;;5134372;28;20043;-74
2022/12/28 10:38:29;;;;;;;1.95;1.30;;;9.60;98.50;;;;;;5135606;28;20020;-74
2022/12/28 10:41:04;;;;;;;4.05;2.22;;;9.60;98.50;;;;;;5134696;28;20056;-75
2022/12/28 10:43:32;;;;;;;2.90;1.75;;;9.60;98.70;;;;;;5133810;28;20069;-75
2022/12/28 10:46:00;;;;;;;2.40;1.38;;;9.60;98.70;;;;;;5135254;28;20020;-74
2022/12/28 10:48:35;;;;;;;2.55;1.33;;;9.60;98.70;;;;;;5135071;28;20030;-74
2022/12/28 10:51:13;;;;;;;2.72;1.67;;;9.60;99.00;;;;;;5135143;28;20051;-74
2022/12/28 10:53:38;;;;;;;2.72;1.45;;;9.60;99.00;;;;;;5134992;28;20028;-74
2022/12/28 10:56:12;;;;;;;2.78;1.67;;;9.60;98.90;;;;;;5134930;28;20034;-74
2022/12/28 10:58:39;;;;;;;20.83;11.85;;;9.60;99.00;;;;;;5134399;28;20034;-75
2022/12/28 11:01:11;;;;;;;11.00;4.30;;;9.60;99.00;;;;;;5134938;28;20026;-74
2022/12/28 11:03:39;;;;;;;4.97;1.80;;;9.60;98.80;;;;;;5134910;28;20034;-74
2022/12/28 11:06:08;;;;;;;3.63;2.15;;;9.60;98.80;;;;;;5134854;28;20091;-74
2022/12/28 11:08:34;;;;;;;2.63;1.40;;;9.60;98.90;;;;;;5133756;28;20051;-74
2022/12/28 11:11:01;;;;;;;2.33;1.70;;;9.60;98.90;;;;;;5133882;28;20031;-74
2022/12/28 11:13:26;;;;;;;2.42;1.50;;;9.60;98.90;;;;;;5134838;28;20023;-74
2022/12/28 11:15:52;;;;;;;4.10;2.78;;;9.60;99.30;;;;;;5134564;28;20038;-74
2022/12/28 11:18:18;;;;;;;4.65;1.63;;;9.70;99.00;;;;;;5134602;28;20051;-74
2022/12/28 11:20:47;;;;;;;4.63;2.55;;;9.70;98.90;;;;;;5134347;28;20406;-74
2022/12/28 11:23:24;;;;;;;3.55;2.28;;;9.70;99.00;;;;;;5134521;28;20028;-74
2022/12/28 11:25:51;;;;;;;2.25;1.55;;;9.70;99.00;;;;;;5133636;28;20091;-75
2022/12/28 11:28:21;;;;;;;2.50;1.80;;;9.70;98.70;;;;;;5133623;28;20055;-75
2022/12/28 11:30:49;;;;;;;2.83;1.92;;;9.70;98.70;;;;;;5133477;28;20047;-74
2022/12/28 11:33:44;;;;;;;3.33;1.70;;;9.70;99.10;;;;;;5133462;28;20519;-74
2022/12/28 11:36:16;;;;;;;1.67;1.30;;;9.70;98.50;;;;;;5132580;28;20031;-74
2022/12/28 11:38:47;;;;;;;2.60;1.60;;;9.70;98.60;;;;;;5133297;28;20050;-74
2022/12/28 11:41:27;;;;;;;3.10;1.58;;;9.70;98.50;;;;;;5133271;28;20269;-74
2022/12/28 11:43:57;;;;;;;5.40;1.45;;;9.70;98.60;;;;;;5134223;28;20048;-74
2022/12/28 11:46:23;;;;;;;4.43;1.77;;;9.70;98.30;;;;;;5134199;28;20028;-74
2022/12/28 11:49:18;;;;;;;4.15;1.73;;;9.80;98.30;;;;;;5133185;28;20047;-74
2022/12/28 11:51:43;;;;;;;2.00;1.38;;;9.80;98.30;;;;;;5119727;28;20044;-74
2022/12/28 11:54:36;;;;;;;3.63;2.05;;;9.80;98.20;;;;;;5133982;28;20039;-74
2022/12/28 11:57:02;;;;;;;2.47;1.58;;;9.80;98.20;;;;;;5133041;28;20016;-75
2022/12/28 11:59:30;;;;;;;5.88;1.73;;;9.80;98.10;;;;;;5116156;28;20396;-74
2022/12/28 12:02:05;;;;;;;1.30;0.93;;;9.80;97.60;;;;;;5132989;28;20026;-74
2022/12/28 12:04:34;;;;;;;2.25;1.42;;;9.80;97.40;;;;;;5133963;28;20024;-75
2022/12/28 12:07:02;;;;;;;2.97;1.45;;;9.80;97.30;;;;;;5133000;28;20042;-74
2022/12/28 12:09:42;;;;;;;3.25;1.60;;;9.90;97.40;;;;;;5134119;28;20095;-74
2022/12/28 12:12:14;;;;;;;5.72;1.90;;;9.90;97.40;;;;;;5137453;28;20024;-74
2022/12/28 12:15:11;;;;;;;3.55;1.30;;;9.80;97.60;;;;;;5137071;28;20046;-74
2022/12/28 12:17:52;;;;;;;4.93;2.00;;;9.90;97.10;;;;;;5137122;28;20035;-74
2022/12/28 12:20:42;;;;;;;3.85;2.03;;;9.90;97.20;;;;;;5136843;28;20039;-74
2022/12/28 12:23:26;;;;;;;3.88;1.90;;;9.90;97.20;;;;;;5137072;28;20019;-74
2022/12/28 12:25:56;;;;;;;2.38;1.63;;;9.90;97.20;;;;;;5136999;28;20020;-74
2022/12/28 12:28:39;;;;;;;1.65;1.05;;;9.80;97.00;;;;;;5137934;28;20024;-74
2022/12/28 12:31:14;;;;;;;3.13;1.45;;;9.80;96.80;;;;;;5136894;28;20462;-74
2022/12/28 12:33:45;;;;;;;3.28;2.35;;;9.90;96.80;;;;;;5138002;28;20031;-74
2022/12/28 12:36:50;;;;;;;2.58;1.50;;;9.90;96.80;;;;;;5136738;28;20023;-74
2022/12/28 12:39:34;;;;;;;3.35;1.90;;;9.90;96.30;;;;;;5136648;28;20035;-74
2022/12/28 12:42:53;;;;;;;2.38;1.63;;;9.90;96.30;;;;;;5136705;28;20047;-74
2022/12/28 12:45:46;;;;;;;2.83;1.27;;;9.90;96.30;;;;;;5104607;28;20038;-74
2022/12/28 12:48:40;;;;;;;1.27;0.80;;;9.90;96.10;;;;;;5136601;28;20043;-74
2022/12/28 12:51:54;;;;;;;5.00;1.50;;;9.90;96.10;;;;;;5136438;28;20038;-74
2022/12/28 12:54:46;;;;;;;1.88;0.80;;;9.90;95.90;;;;;;5136368;28;20038;-74
2022/12/28 12:57:31;;;;;;;1.40;1.10;;;9.90;95.80;;;;;;5137416;28;20027;-74
2022/12/28 13:00:15;;;;;;;1.88;0.95;;;10.00;95.90;;;;;;5136420;28;20057;-74
2022/12/28 13:03:02;;;;;;;2.55;1.13;;;10.00;95.90;;;;;;5136285;28;20023;-74
2022/12/28 13:05:29;;;;;;;7.63;1.65;;;10.00;95.80;;;;;;5136179;28;20038;-74
2022/12/28 13:07:57;;;;;;;1.35;1.10;;;10.00;95.90;;;;;;5119053;28;20043;-74
2022/12/28 13:10:33;;;;;;;1.58;1.23;;;10.00;95.50;;;;;;5136145;28;20019;-74
2022/12/28 13:13:01;;;;;;;3.10;1.27;;;10.00;95.70;;;;;;5137243;28;20027;-74
2022/12/28 13:15:27;;;;;;;3.80;1.45;;;10.00;95.40;;;;;;5136969;28;20028;-74
2022/12/28 13:18:06;;;;;;;1.52;1.05;;;10.00;95.50;;;;;;5135976;28;20046;-74
2022/12/28 13:20:32;;;;;;;2.05;1.25;;;10.00;95.30;;;;;;5136395;28;20043;-74
2022/12/28 13:22:58;;;;;;;4.97;1.40;;;10.00;95.40;;;;;;5135591;28;20020;-74
2022/12/28 13:25:32;;;;;;;1.85;1.00;;;10.10;94.90;;;;;;5136798;28;20054;-74
2022/12/28 13:28:00;;;;;;;1.77;1.17;;;10.10;94.80;;;;;;5135903;28;20023;-74
2022/12/28 13:30:26;;;;;;;5.40;1.30;;;10.10;95.00;;;;;;5135652;28;20026;-74
2022/12/28 13:32:58;;;;;;;2.10;1.13;;;10.10;94.30;;;;;;5136741;27;20073;-74
2022/12/28 13:35:29;;;;;;;2.85;1.23;;;10.10;94.20;;;;;;5136512;28;20043;-74
2022/12/28 13:38:11;;;;;;;1.70;1.10;;;10.20;94.30;;;;;;5135906;28;20031;-74
2022/12/28 13:40:38;;;;;;;2.00;1.00;;;10.20;94.10;;;;;;5136615;28;20051;-74
2022/12/28 13:43:35;;;;;;;3.83;1.55;;;10.20;94.10;;;;;;5136524;28;20020;-74
2022/12/28 13:46:07;;;;;;;4.18;1.27;;;10.20;94.00;;;;;;5136431;28;20049;-74
2022/12/28 13:48:36;;;;;;;2.55;1.02;;;10.20;93.70;;;;;;5135374;28;20045;-74
2022/12/28 13:51:02;;;;;;;1.80;1.00;;;10.20;93.70;;;;;;5136303;28;20516;-74
2022/12/28 13:53:30;;;;;;;2.20;0.93;;;10.20;93.40;;;;;;5118374;28;20051;-74